createdAt,value
2019-05-01T00:01:37.436Z,7.33
2019-05-01T00:04:09.978Z,7.30
2019-05-01T00:06:44.556Z,7.30
2019-05-01T00:09:15.134Z,7.25
2019-05-01T00:11:45.494Z,7.24
2019-05-01T00:14:16.133Z,7.23
2019-05-01T00:16:46.442Z,7.20
2019-05-01T00:19:16.829Z,7.19
2019-05-01T00:21:47.129Z,7.21
2019-05-01T00:24:17.341Z,7.20
2019-05-01T00:26:47.621Z,7.17
2019-05-01T00:29:18.110Z,7.14
2019-05-01T00:31:48.464Z,7.13
2019-05-01T00:34:18.817Z,7.04
2019-05-01T00:36:49.060Z,6.94
2019-05-01T00:39:19.818Z,6.88
2019-05-01T00:41:50.232Z,6.87
2019-05-01T00:44:20.818Z,6.82
2019-05-01T00:46:51.649Z,6.81
2019-05-01T00:49:21.909Z,6.77
2019-05-01T00:51:52.209Z,6.72
2019-05-01T00:54:22.823Z,6.64
2019-05-01T00:56:57.655Z,6.60
2019-05-01T00:59:46.941Z,6.57
2019-05-01T01:02:33.622Z,6.52
2019-05-01T01:05:04.578Z,6.44
2019-05-01T01:07:35.591Z,6.36
2019-05-01T01:10:08.899Z,6.38
2019-05-01T01:12:39.208Z,6.40
2019-05-01T01:15:09.804Z,6.32
2019-05-01T01:17:40.225Z,6.23
2019-05-01T01:20:10.809Z,6.15
2019-05-01T01:22:41.655Z,6.09
2019-05-01T01:25:12.443Z,6.07
2019-05-01T01:27:43.270Z,6.11
2019-05-01T01:30:13.806Z,6.10
2019-05-01T01:32:44.021Z,5.87
2019-05-01T01:35:15.319Z,5.82
2019-05-01T01:37:45.615Z,5.81
2019-05-01T01:40:16.891Z,5.75
2019-05-01T01:42:49.880Z,5.78
2019-05-01T01:45:33.720Z,5.75
2019-05-01T01:48:15.527Z,5.72
2019-05-01T01:50:46.962Z,5.69
2019-05-01T01:53:21.729Z,5.61
2019-05-01T01:55:52.853Z,5.59
2019-05-01T01:58:25.158Z,5.55
2019-05-01T02:01:09.580Z,5.52
2019-05-01T02:03:43.208Z,5.57
2019-05-01T02:06:14.547Z,5.52
2019-05-01T02:08:55.932Z,5.45
2019-05-01T02:11:17.432Z,5.44
2019-05-01T02:13:48.150Z,5.45
2019-05-01T02:16:18.931Z,5.40
2019-05-01T02:18:49.581Z,5.35
2019-05-01T02:21:19.950Z,5.29
2019-05-01T02:23:50.583Z,5.20
2019-05-01T02:26:23.340Z,5.12
2019-05-01T02:29:10.292Z,5.08
2019-05-01T02:31:42.713Z,5.04
2019-05-01T02:34:13.594Z,5.00
2019-05-01T02:36:47.326Z,5.00
2019-05-01T02:39:21.977Z,4.98
2019-05-01T02:41:55.165Z,4.95
2019-05-01T02:44:28.585Z,5.01
2019-05-01T02:47:03.755Z,4.98
2019-05-01T02:49:52.344Z,4.99
2019-05-01T02:52:25.827Z,5.04
2019-05-01T02:55:01.804Z,5.07
2019-05-01T02:57:35.242Z,5.01
2019-05-01T03:00:07.458Z,5.01
2019-05-01T03:02:40.832Z,5.05
2019-05-01T03:05:12.170Z,5.10
2019-05-01T03:07:44.373Z,5.11
2019-05-01T03:10:15.361Z,5.09
2019-05-01T03:12:48.545Z,5.10
2019-05-01T03:15:20.822Z,5.12
2019-05-01T03:17:54.672Z,5.29
2019-05-01T03:20:42.479Z,5.38
2019-05-01T03:23:21.554Z,5.47
2019-05-01T03:25:52.244Z,5.63
2019-05-01T03:28:23.042Z,5.77
2019-05-01T03:30:53.334Z,5.82
2019-05-01T03:33:23.930Z,5.85
2019-05-01T03:35:55.738Z,5.86
2019-05-01T03:38:27.054Z,5.94
2019-05-01T03:40:57.900Z,6.00
2019-05-01T03:43:29.404Z,6.06
2019-05-01T03:46:00.522Z,6.12
2019-05-01T03:48:31.697Z,6.17
2019-05-01T03:51:03.038Z,6.25
2019-05-01T03:53:34.360Z,6.36
2019-05-01T03:56:05.355Z,6.46
2019-05-01T03:58:35.915Z,6.58
2019-05-01T04:01:24.177Z,6.68
2019-05-01T04:03:56.397Z,6.79
2019-05-01T04:06:27.566Z,6.95
2019-05-01T04:08:59.082Z,7.13
2019-05-01T04:11:29.659Z,7.17
2019-05-01T04:14:00.131Z,7.31
2019-05-01T04:16:31.601Z,7.50
2019-05-01T04:19:04.441Z,7.74
2019-05-01T04:21:42.596Z,7.93
2019-05-01T04:24:12.830Z,8.07
2019-05-01T04:26:44.347Z,8.14
2019-05-01T04:29:14.861Z,8.20
2019-05-01T04:31:53.849Z,8.38
2019-05-01T04:34:35.313Z,8.55
2019-05-01T04:37:07.790Z,8.63
2019-05-01T04:39:38.091Z,8.74
2019-05-01T04:42:09.367Z,9.18
2019-05-01T04:44:41.577Z,9.98
2019-05-01T04:47:13.737Z,10.49
2019-05-01T04:49:45.448Z,11.17
2019-05-01T04:52:16.390Z,11.42
2019-05-01T04:54:47.549Z,11.39
2019-05-01T04:57:18.478Z,11.42
2019-05-01T04:59:49.198Z,11.73
2019-05-01T05:02:24.164Z,12.12
2019-05-01T05:04:55.124Z,12.23
2019-05-01T05:07:26.081Z,12.21
2019-05-01T05:09:57.834Z,12.51
2019-05-01T05:12:36.190Z,12.68
2019-05-01T05:15:26.648Z,12.92
2019-05-01T05:17:56.930Z,13.75
2019-05-01T05:20:28.110Z,15.39
2019-05-01T05:22:59.655Z,15.56
2019-05-01T05:25:30.846Z,16.00
2019-05-01T05:28:01.690Z,15.96
2019-05-01T05:30:34.113Z,16.60
2019-05-01T05:33:18.122Z,16.80
2019-05-01T05:35:43.564Z,16.73
2019-05-01T05:38:21.633Z,16.28
2019-05-01T05:40:52.996Z,15.91
2019-05-01T05:43:24.037Z,15.62
2019-05-01T05:45:54.307Z,16.09
2019-05-01T05:48:24.812Z,16.71
2019-05-01T05:50:58.983Z,17.44
2019-05-01T05:53:38.991Z,18.77
2019-05-01T05:56:15.789Z,19.23
2019-05-01T05:58:55.800Z,19.21
2019-05-01T06:01:45.517Z,18.94
2019-05-01T06:04:20.449Z,18.83
2019-05-01T06:06:57.232Z,18.98
2019-05-01T06:09:34.359Z,18.83
2019-05-01T06:12:16.108Z,18.59
2019-05-01T06:14:52.213Z,18.48
2019-05-01T06:17:28.584Z,18.90
2019-05-01T06:20:01.632Z,19.81
2019-05-01T06:22:34.744Z,19.80
2019-05-01T06:25:21.442Z,20.31
2019-05-01T06:27:44.828Z,20.16
2019-05-01T06:30:15.757Z,20.56
2019-05-01T06:32:47.679Z,21.31
2019-05-01T06:35:18.484Z,22.49
2019-05-01T06:38:05.943Z,24.16
2019-05-01T06:40:38.711Z,26.03
2019-05-01T06:43:13.626Z,27.98
2019-05-01T06:45:46.839Z,29.29
2019-05-01T06:48:23.330Z,29.76
2019-05-01T06:50:55.954Z,29.02
2019-05-01T06:53:26.803Z,28.91
2019-05-01T06:55:57.459Z,27.32
2019-05-01T06:58:28.547Z,25.76
2019-05-01T07:00:58.926Z,26.18
2019-05-01T07:03:29.810Z,28.34
2019-05-01T07:06:13.629Z,29.34
2019-05-01T07:08:34.178Z,28.62
2019-05-01T07:11:05.060Z,27.40
2019-05-01T07:13:40.123Z,26.72
2019-05-01T07:16:09.335Z,28.39
2019-05-01T07:18:40.206Z,28.99
2019-05-01T07:21:11.544Z,30.43
2019-05-01T07:23:42.446Z,32.72
2019-05-01T07:26:13.834Z,33.83
2019-05-01T07:28:47.338Z,33.27
2019-05-01T07:31:18.080Z,33.83
2019-05-01T07:33:51.242Z,35.29
2019-05-01T07:36:21.222Z,36.08
2019-05-01T07:38:52.125Z,37.33
2019-05-01T07:41:22.869Z,38.71
2019-05-01T07:44:04.730Z,38.72
2019-05-01T07:46:54.161Z,38.35
2019-05-01T07:49:27.880Z,36.34
2019-05-01T07:51:58.511Z,33.08
2019-05-01T07:54:30.919Z,30.92
2019-05-01T07:57:03.277Z,29.52
2019-05-01T07:59:33.920Z,28.33
2019-05-01T08:02:05.841Z,27.49
2019-05-01T08:04:36.745Z,26.82
2019-05-01T08:07:10.012Z,28.47
2019-05-01T08:09:40.655Z,30.36
2019-05-01T08:12:10.959Z,32.92
2019-05-01T08:14:41.179Z,34.90
2019-05-01T08:17:17.942Z,34.02
2019-05-01T08:19:47.031Z,32.42
2019-05-01T08:22:19.329Z,31.63
2019-05-01T08:24:53.718Z,32.81
2019-05-01T08:27:32.812Z,34.28
2019-05-01T08:30:12.770Z,34.87
2019-05-01T08:32:45.898Z,34.61
2019-05-01T08:35:18.656Z,34.87
2019-05-01T08:37:48.881Z,35.51
2019-05-01T08:40:20.533Z,35.60
2019-05-01T08:42:52.435Z,35.84
2019-05-01T08:45:35.713Z,36.83
2019-05-01T08:48:20.790Z,37.37
2019-05-01T08:50:54.650Z,37.45
2019-05-01T08:53:23.405Z,37.47
2019-05-01T08:55:54.165Z,37.10
2019-05-01T08:58:24.805Z,37.10
2019-05-01T09:00:55.097Z,37.16
2019-05-01T09:03:25.328Z,37.48
2019-05-01T09:05:57.467Z,37.01
2019-05-01T09:08:32.033Z,37.04
2019-05-01T09:11:02.299Z,37.43
2019-05-01T09:13:33.092Z,37.78
2019-05-01T09:16:03.381Z,37.60
2019-05-01T09:18:33.946Z,37.83
2019-05-01T09:21:05.131Z,37.96
2019-05-01T09:23:35.908Z,37.80
2019-05-01T09:26:24.049Z,37.28
2019-05-01T09:29:16.019Z,36.39
2019-05-01T09:31:44.957Z,35.79
2019-05-01T09:34:19.205Z,36.41
2019-05-01T09:36:48.038Z,35.55
2019-05-01T09:39:20.744Z,33.59
2019-05-01T09:41:51.029Z,32.67
2019-05-01T09:44:21.678Z,31.31
2019-05-01T09:46:52.040Z,29.79
2019-05-01T09:49:22.997Z,27.94
2019-05-01T09:51:56.193Z,26.50
2019-05-01T09:54:29.210Z,25.51
2019-05-01T09:57:00.076Z,24.53
2019-05-01T09:59:30.491Z,24.89
2019-05-01T10:02:02.993Z,26.09
2019-05-01T10:04:34.191Z,26.66
2019-05-01T10:07:06.291Z,27.21
2019-05-01T10:09:36.891Z,28.67
2019-05-01T10:12:11.534Z,30.04
2019-05-01T10:14:40.198Z,30.56
2019-05-01T10:17:13.412Z,30.22
2019-05-01T10:19:43.333Z,29.40
2019-05-01T10:22:13.682Z,28.72
2019-05-01T10:24:43.889Z,28.01
2019-05-01T10:27:17.319Z,27.13
2019-05-01T10:29:52.021Z,26.37
2019-05-01T10:32:24.256Z,25.73
2019-05-01T10:35:00.186Z,24.76
2019-05-01T10:37:33.641Z,23.79
2019-05-01T10:40:06.154Z,22.89
2019-05-01T10:42:37.342Z,22.54
2019-05-01T10:45:08.421Z,22.45
2019-05-01T10:47:38.642Z,22.46
2019-05-01T10:50:10.592Z,22.44
2019-05-01T10:52:40.907Z,22.34
2019-05-01T10:55:11.832Z,22.13
2019-05-01T10:57:42.583Z,21.96
2019-05-01T11:00:14.897Z,22.04
2019-05-01T11:02:45.464Z,22.51
2019-05-01T11:05:16.047Z,22.98
2019-05-01T11:07:46.628Z,23.24
2019-05-01T11:10:16.937Z,23.38
2019-05-01T11:12:47.186Z,23.57
2019-05-01T11:15:18.840Z,23.70
2019-05-01T11:17:49.124Z,23.70
2019-05-01T11:20:19.355Z,23.63
2019-05-01T11:22:49.608Z,23.50
2019-05-01T11:25:20.920Z,23.46
2019-05-01T11:27:51.222Z,23.45
2019-05-01T11:30:21.528Z,23.55
2019-05-01T11:33:02.455Z,23.61
2019-05-01T11:35:47.587Z,23.60
2019-05-01T11:38:34.893Z,23.59
2019-05-01T11:41:13.609Z,23.64
2019-05-01T11:43:44.205Z,23.80
2019-05-01T11:46:14.913Z,23.88
2019-05-01T11:48:45.271Z,23.77
2019-05-01T11:51:15.942Z,23.85
2019-05-01T11:53:46.740Z,23.69
2019-05-01T11:56:17.514Z,23.36
2019-05-01T11:58:47.761Z,23.12
2019-05-01T12:01:21.182Z,22.78
2019-05-01T12:03:51.397Z,22.54
2019-05-01T12:06:23.216Z,22.36
2019-05-01T12:08:55.057Z,21.96
2019-05-01T12:11:28.534Z,21.82
2019-05-01T12:13:59.199Z,21.80
2019-05-01T12:16:47.926Z,21.81
2019-05-01T12:19:18.688Z,21.91
2019-05-01T12:21:48.935Z,22.04
2019-05-01T12:24:19.143Z,22.25
2019-05-01T12:26:49.511Z,22.39
2019-05-01T12:29:19.722Z,22.48
2019-05-01T12:31:49.935Z,22.61
2019-05-01T12:34:20.127Z,22.61
2019-05-01T12:36:52.066Z,22.45
2019-05-01T12:39:22.368Z,22.47
2019-05-01T12:41:56.937Z,22.32
2019-05-01T12:44:27.137Z,22.09
2019-05-01T12:47:05.153Z,22.11
2019-05-01T12:49:35.814Z,22.12
2019-05-01T12:52:10.982Z,21.90
2019-05-01T12:54:51.842Z,21.74
2019-05-01T12:57:20.877Z,21.75
2019-05-01T12:59:51.348Z,21.52
2019-05-01T13:02:21.549Z,21.29
2019-05-01T13:04:51.785Z,21.02
2019-05-01T13:07:22.560Z,20.79
2019-05-01T13:09:53.382Z,20.75
2019-05-01T13:12:25.624Z,21.00
2019-05-01T13:14:55.951Z,21.26
2019-05-01T13:17:26.541Z,21.48
2019-05-01T13:19:57.170Z,21.70
2019-05-01T13:22:27.835Z,21.89
2019-05-01T13:24:58.496Z,22.01
2019-05-01T13:27:39.631Z,22.15
2019-05-01T13:30:28.111Z,22.37
2019-05-01T13:32:58.462Z,22.53
2019-05-01T13:35:30.570Z,22.57
2019-05-01T13:38:00.619Z,22.65
2019-05-01T13:40:31.395Z,22.57
2019-05-01T13:43:01.669Z,22.37
2019-05-01T13:45:32.317Z,22.33
2019-05-01T13:48:02.950Z,22.31
2019-05-01T13:50:35.051Z,22.21
2019-05-01T13:53:06.242Z,22.13
2019-05-01T13:55:36.548Z,21.90
2019-05-01T13:58:07.181Z,21.87
2019-05-01T14:00:37.729Z,21.91
2019-05-01T14:03:08.315Z,21.96
2019-05-01T14:05:39.045Z,22.08
2019-05-01T14:08:09.706Z,22.04
2019-05-01T14:10:39.965Z,21.78
2019-05-01T14:13:10.231Z,21.60
2019-05-01T14:15:40.445Z,21.49
2019-05-01T14:18:10.680Z,21.37
2019-05-01T14:20:42.529Z,21.15
2019-05-01T14:23:17.446Z,20.91
2019-05-01T14:26:08.515Z,20.59
2019-05-01T14:28:39.146Z,20.28
2019-05-01T14:31:09.787Z,20.18
2019-05-01T14:33:40.540Z,20.23
2019-05-01T14:36:11.123Z,20.47
2019-05-01T14:38:41.417Z,20.46
2019-05-01T14:41:11.655Z,20.35
2019-05-01T14:43:42.236Z,20.36
2019-05-01T14:46:13.945Z,20.38
2019-05-01T14:48:44.601Z,20.51
2019-05-01T14:51:16.192Z,20.54
2019-05-01T14:53:46.595Z,20.55
2019-05-01T14:56:16.891Z,20.44
2019-05-01T14:58:47.194Z,20.37
2019-05-01T15:01:17.419Z,20.22
2019-05-01T15:03:47.642Z,20.14
2019-05-01T15:06:18.228Z,20.07
2019-05-01T15:08:48.593Z,19.98
2019-05-01T15:11:18.814Z,19.95
2019-05-01T15:13:50.682Z,19.70
2019-05-01T15:16:21.020Z,19.50
2019-05-01T15:19:10.729Z,19.42
2019-05-01T15:21:41.361Z,19.42
2019-05-01T15:24:11.635Z,19.31
2019-05-01T15:26:42.258Z,19.28
2019-05-01T15:29:12.957Z,19.10
2019-05-01T15:31:43.729Z,18.98
2019-05-01T15:34:14.431Z,18.93
2019-05-01T15:36:44.738Z,18.87
2019-05-01T15:39:19.136Z,18.76
2019-05-01T15:41:50.550Z,18.66
2019-05-01T15:44:22.798Z,18.58
2019-05-01T15:46:53.437Z,18.52
2019-05-01T15:49:24.310Z,18.48
2019-05-01T15:51:54.610Z,18.39
2019-05-01T15:54:24.897Z,18.33
2019-05-01T15:56:55.198Z,18.24
2019-05-01T15:59:25.512Z,18.10
2019-05-01T16:01:55.718Z,18.01
2019-05-01T16:04:26.285Z,17.99
2019-05-01T16:06:56.916Z,17.92
2019-05-01T16:09:27.837Z,17.83
2019-05-01T16:12:06.994Z,17.78
2019-05-01T16:14:37.616Z,17.76
2019-05-01T16:17:07.933Z,17.67
2019-05-01T16:19:38.318Z,17.53
2019-05-01T16:22:08.708Z,17.32
2019-05-01T16:24:38.982Z,17.16
2019-05-01T16:27:09.148Z,17.09
2019-05-01T16:29:40.097Z,17.06
2019-05-01T16:32:11.524Z,17.00
2019-05-01T16:34:42.232Z,16.86
2019-05-01T16:37:12.513Z,16.72
2019-05-01T16:39:44.389Z,16.63
2019-05-01T16:42:14.947Z,16.52
2019-05-01T16:44:45.234Z,16.55
2019-05-01T16:47:17.065Z,16.48
2019-05-01T16:49:47.826Z,16.52
2019-05-01T16:52:20.034Z,16.36
2019-05-01T16:54:59.069Z,16.28
2019-05-01T16:57:22.724Z,16.22
2019-05-01T16:59:53.405Z,16.09
2019-05-01T17:02:41.099Z,16.08
2019-05-01T17:05:30.332Z,15.97
2019-05-01T17:08:02.253Z,15.92
2019-05-01T17:10:34.742Z,15.99
2019-05-01T17:13:07.624Z,16.00
2019-05-01T17:15:39.579Z,16.00
2019-05-01T17:18:10.439Z,15.98
2019-05-01T17:20:40.761Z,15.94
2019-05-01T17:23:10.964Z,15.98
2019-05-01T17:25:41.331Z,15.91
2019-05-01T17:28:11.753Z,15.87
2019-05-01T17:30:48.060Z,15.73
2019-05-01T17:33:20.684Z,15.58
2019-05-01T17:35:50.860Z,15.48
2019-05-01T17:38:21.293Z,15.37
2019-05-01T17:40:52.494Z,15.20
2019-05-01T17:43:23.417Z,15.05
2019-05-01T17:45:53.750Z,14.89
2019-05-01T17:48:23.986Z,14.80
2019-05-01T17:50:55.152Z,14.64
2019-05-01T17:53:26.118Z,14.47
2019-05-01T17:55:56.378Z,14.39
2019-05-01T17:58:26.583Z,14.25
2019-05-01T18:00:58.442Z,14.14
2019-05-01T18:03:33.076Z,14.02
2019-05-01T18:06:16.735Z,13.87
2019-05-01T18:08:47.003Z,13.76
2019-05-01T18:11:17.648Z,13.62
2019-05-01T18:13:48.418Z,13.48
2019-05-01T18:16:18.808Z,13.37
2019-05-01T18:18:50.432Z,13.27
2019-05-01T18:21:21.441Z,13.16
2019-05-01T18:23:53.734Z,13.05
2019-05-01T18:26:24.444Z,12.94
2019-05-01T18:29:12.699Z,12.88
2019-05-01T18:31:43.024Z,12.80
2019-05-01T18:34:13.326Z,12.73
2019-05-01T18:36:54.986Z,12.65
2019-05-01T18:39:32.470Z,12.57
2019-05-01T18:42:07.687Z,12.45
2019-05-01T18:44:37.978Z,12.35
2019-05-01T18:47:08.664Z,12.26
2019-05-01T18:49:38.948Z,12.13
2019-05-01T18:52:10.212Z,11.99
2019-05-01T18:54:40.508Z,11.88
2019-05-01T18:57:11.122Z,11.75
2019-05-01T18:59:41.778Z,11.61
2019-05-01T19:02:12.272Z,11.49
2019-05-01T19:04:42.477Z,11.37
2019-05-01T19:07:13.067Z,11.28
2019-05-01T19:09:43.983Z,11.19
2019-05-01T19:12:16.271Z,11.11
2019-05-01T19:14:47.214Z,11.06
2019-05-01T19:17:17.508Z,11.02
2019-05-01T19:19:47.727Z,10.98
2019-05-01T19:22:19.680Z,10.99
2019-05-01T19:24:49.998Z,10.99
2019-05-01T19:27:21.250Z,10.93
2019-05-01T19:29:53.064Z,10.85
2019-05-01T19:32:23.713Z,10.78
2019-05-01T19:34:54.429Z,10.73
2019-05-01T19:37:29.268Z,10.70
2019-05-01T19:39:57.185Z,10.67
2019-05-01T19:42:27.418Z,10.60
2019-05-01T19:44:57.929Z,10.56
2019-05-01T19:47:28.286Z,10.48
2019-05-01T19:50:06.613Z,10.40
2019-05-01T19:52:32.320Z,10.33
2019-05-01T19:55:06.332Z,10.35
2019-05-01T19:57:35.415Z,10.39
2019-05-01T20:00:11.027Z,10.35
2019-05-01T20:02:42.400Z,10.35
2019-05-01T20:05:12.959Z,10.30
2019-05-01T20:07:43.244Z,10.30
2019-05-01T20:10:14.650Z,10.27
2019-05-01T20:12:47.646Z,10.36
2019-05-01T20:15:20.075Z,10.29
2019-05-01T20:17:50.921Z,10.32
2019-05-01T20:20:21.225Z,10.40
2019-05-01T20:22:53.320Z,10.47
2019-05-01T20:25:24.624Z,10.49
2019-05-01T20:27:57.343Z,10.60
2019-05-01T20:30:27.419Z,10.64
2019-05-01T20:33:02.127Z,10.94
2019-05-01T20:35:30.346Z,11.03
2019-05-01T20:38:00.960Z,11.14
2019-05-01T20:40:31.872Z,11.21
2019-05-01T20:43:05.900Z,11.32
2019-05-01T20:45:34.865Z,11.36
2019-05-01T20:48:05.238Z,11.44
2019-05-01T20:50:35.819Z,11.53
2019-05-01T20:53:06.565Z,11.65
2019-05-01T20:55:37.058Z,11.71
2019-05-01T20:58:20.849Z,11.77
2019-05-01T21:00:54.795Z,11.88
2019-05-01T21:03:25.321Z,11.87
2019-05-01T21:06:12.746Z,12.11
2019-05-01T21:08:46.065Z,12.19
2019-05-01T21:11:18.319Z,12.25
2019-05-01T21:13:48.894Z,12.29
2019-05-01T21:16:19.560Z,12.35
2019-05-01T21:18:50.227Z,12.38
2019-05-01T21:21:20.508Z,12.42
2019-05-01T21:23:55.303Z,12.42
2019-05-01T21:26:23.448Z,12.44
2019-05-01T21:28:54.135Z,12.47
2019-05-01T21:31:24.788Z,12.46
2019-05-01T21:33:55.441Z,12.47
2019-05-01T21:36:26.453Z,12.57
2019-05-01T21:38:57.103Z,12.82
2019-05-01T21:41:27.419Z,12.78
2019-05-01T21:43:57.976Z,12.71
2019-05-01T21:46:28.601Z,12.68
2019-05-01T21:48:59.307Z,12.64
2019-05-01T21:51:29.961Z,12.61
2019-05-01T21:54:00.655Z,12.60
2019-05-01T21:56:31.019Z,12.55
2019-05-01T21:59:06.642Z,12.53
2019-05-01T22:01:34.728Z,12.52
2019-05-01T22:04:06.680Z,12.49
2019-05-01T22:06:36.949Z,12.47
2019-05-01T22:09:10.499Z,12.47
2019-05-01T22:11:45.171Z,12.46
2019-05-01T22:14:17.110Z,12.44
2019-05-01T22:16:47.684Z,12.41
2019-05-01T22:19:20.267Z,12.39
2019-05-01T22:21:58.876Z,12.36
2019-05-01T22:24:42.723Z,12.33
2019-05-01T22:27:13.180Z,12.30
2019-05-01T22:29:48.884Z,12.27
2019-05-01T22:32:39.283Z,12.24
2019-05-01T22:35:13.659Z,12.21
2019-05-01T22:37:44.949Z,12.19
2019-05-01T22:40:17.252Z,12.18
2019-05-01T22:42:47.536Z,12.15
2019-05-01T22:45:23.131Z,12.11
2019-05-01T22:47:53.448Z,11.94
2019-05-01T22:50:24.738Z,11.95
2019-05-01T22:52:55.392Z,11.85
2019-05-01T22:55:26.761Z,11.74
2019-05-01T22:57:57.214Z,11.60
2019-05-01T23:00:45.388Z,11.50
2019-05-01T23:03:23.339Z,11.41
2019-05-01T23:05:54.016Z,11.38
2019-05-01T23:08:24.642Z,11.29
2019-05-01T23:10:55.289Z,11.29
2019-05-01T23:13:26.019Z,11.30
2019-05-01T23:15:58.045Z,11.29
2019-05-01T23:18:28.379Z,11.32
2019-05-01T23:20:58.586Z,11.18
2019-05-01T23:23:28.984Z,11.05
2019-05-01T23:25:59.214Z,10.91
2019-05-01T23:28:29.427Z,10.76
2019-05-01T23:30:59.655Z,10.67
2019-05-01T23:33:30.592Z,10.57
2019-05-01T23:36:00.940Z,10.49
2019-05-01T23:38:31.140Z,10.40
2019-05-01T23:41:01.368Z,10.30
2019-05-01T23:43:31.705Z,10.23
2019-05-01T23:46:02.016Z,10.22
2019-05-01T23:48:32.234Z,10.23
2019-05-01T23:51:02.475Z,10.28
2019-05-01T23:53:32.681Z,10.29
2019-05-01T23:56:03.267Z,10.28
2019-05-01T23:58:33.542Z,10.24
